sensor_id;sensor_type;location;lat;lon;timestamp;P1;durP1;ratioP1;P2;durP2;ratioP2
15012;SDS011;7603;49.432;11.418;2023-09-12T00:00:47;13.73;;;12.52;;
15012;SDS011;7603;49.432;11.418;2023-09-12T00:03:13;14.65;;;13.27;;
15012;SDS011;7603;49.432;11.418;2023-09-12T00:05:39;14.40;;;13.10;;
15012;SDS011;7603;49.432;11.418;2023-09-12T00:08:05;14.13;;;13.15;;
15012;SDS011;7603;49.432;11.418;2023-09-12T00:10:31;14.85;;;13.80;;
15012;SDS011;7603;49.432;11.418;2023-09-12T00:12:57;15.52;;;14.23;;
15012;SDS011;7603;49.432;11.418;2023-09-12T00:15:27;14.95;;;13.75;;
15012;SDS011;7603;49.432;11.418;2023-09-12T00:17:52;15.15;;;13.88;;
15012;SDS011;7603;49.432;11.418;2023-09-12T00:20:18;13.95;;;12.68;;
15012;SDS011;7603;49.432;11.418;2023-09-12T00:22:44;13.07;;;11.93;;
15012;SDS011;7603;49.432;11.418;2023-09-12T00:25:10;12.90;;;12.02;;
15012;SDS011;7603;49.432;11.418;2023-09-12T00:27:36;13.20;;;12.10;;
15012;SDS011;7603;49.432;11.418;2023-09-12T00:30:02;14.13;;;13.10;;
15012;SDS011;7603;49.432;11.418;2023-09-12T00:32:28;13.88;;;11.80;;
15012;SDS011;7603;49.432;11.418;2023-09-12T00:34:53;15.20;;;12.98;;
15012;SDS011;7603;49.432;11.418;2023-09-12T00:37:19;13.48;;;12.35;;
15012;SDS011;7603;49.432;11.418;2023-09-12T00:39:44;13.85;;;12.68;;
15012;SDS011;7603;49.432;11.418;2023-09-12T00:42:12;14.98;;;12.70;;
15012;SDS011;7603;49.432;11.418;2023-09-12T00:44:38;13.63;;;12.63;;
15012;SDS011;7603;49.432;11.418;2023-09-12T00:47:03;13.50;;;12.50;;
15012;SDS011;7603;49.432;11.418;2023-09-12T00:49:30;13.70;;;12.60;;
15012;SDS011;7603;49.432;11.418;2023-09-12T00:51:56;13.20;;;11.88;;
15012;SDS011;7603;49.432;11.418;2023-09-12T00:54:23;12.82;;;11.98;;
15012;SDS011;7603;49.432;11.418;2023-09-12T00:56:49;24.50;;;12.45;;
15012;SDS011;7603;49.432;11.418;2023-09-12T00:59:15;14.07;;;12.75;;
15012;SDS011;7603;49.432;11.418;2023-09-12T01:01:42;13.93;;;12.65;;
15012;SDS011;7603;49.432;11.418;2023-09-12T01:04:09;14.27;;;13.05;;
15012;SDS011;7603;49.432;11.418;2023-09-12T01:06:35;14.07;;;12.73;;
15012;SDS011;7603;49.432;11.418;2023-09-12T01:09:03;13.20;;;12.10;;
15012;SDS011;7603;49.432;11.418;2023-09-12T01:11:29;14.25;;;13.05;;
15012;SDS011;7603;49.432;11.418;2023-09-12T01:13:55;14.30;;;12.90;;
15012;SDS011;7603;49.432;11.418;2023-09-12T01:16:20;14.48;;;13.27;;
15012;SDS011;7603;49.432;11.418;2023-09-12T01:18:46;15.18;;;13.65;;
15012;SDS011;7603;49.432;11.418;2023-09-12T01:21:19;15.48;;;14.07;;
15012;SDS011;7603;49.432;11.418;2023-09-12T01:26:59;14.30;;;13.05;;
15012;SDS011;7603;49.432;11.418;2023-09-12T01:29:53;14.75;;;13.32;;
15012;SDS011;7603;49.432;11.418;2023-09-12T01:32:21;15.88;;;14.20;;
15012;SDS011;7603;49.432;11.418;2023-09-12T01:34:47;14.50;;;13.30;;
15012;SDS011;7603;49.432;11.418;2023-09-12T01:37:13;16.52;;;14.93;;
15012;SDS011;7603;49.432;11.418;2023-09-12T01:39:39;16.52;;;15.10;;
15012;SDS011;7603;49.432;11.418;2023-09-12T01:42:05;15.48;;;14.25;;
15012;SDS011;7603;49.432;11.418;2023-09-12T01:44:33;15.80;;;14.48;;
15012;SDS011;7603;49.432;11.418;2023-09-12T01:47:03;16.85;;;15.45;;
15012;SDS011;7603;49.432;11.418;2023-09-12T01:49:30;15.90;;;14.18;;
15012;SDS011;7603;49.432;11.418;2023-09-12T01:51:56;16.58;;;15.02;;
15012;SDS011;7603;49.432;11.418;2023-09-12T01:54:24;15.85;;;14.65;;
15012;SDS011;7603;49.432;11.418;2023-09-12T01:56:51;15.43;;;14.20;;
15012;SDS011;7603;49.432;11.418;2023-09-12T01:59:16;15.52;;;13.98;;
15012;SDS011;7603;49.432;11.418;2023-09-12T02:01:42;15.00;;;13.70;;
15012;SDS011;7603;49.432;11.418;2023-09-12T02:04:08;16.35;;;14.88;;
15012;SDS011;7603;49.432;11.418;2023-09-12T02:06:36;15.10;;;13.90;;
15012;SDS011;7603;49.432;11.418;2023-09-12T02:09:02;17.40;;;15.70;;
15012;SDS011;7603;49.432;11.418;2023-09-12T02:11:28;16.60;;;15.20;;
15012;SDS011;7603;49.432;11.418;2023-09-12T02:13:53;18.08;;;16.40;;
15012;SDS011;7603;49.432;11.418;2023-09-12T02:16:19;15.63;;;14.27;;
15012;SDS011;7603;49.432;11.418;2023-09-12T02:18:44;17.27;;;15.77;;
15012;SDS011;7603;49.432;11.418;2023-09-12T02:21:10;15.50;;;14.23;;
15012;SDS011;7603;49.432;11.418;2023-09-12T02:23:36;17.05;;;15.45;;
15012;SDS011;7603;49.432;11.418;2023-09-12T02:26:02;19.27;;;17.67;;
15012;SDS011;7603;49.432;11.418;2023-09-12T02:28:27;19.35;;;17.80;;
15012;SDS011;7603;49.432;11.418;2023-09-12T02:30:53;17.67;;;15.98;;
15012;SDS011;7603;49.432;11.418;2023-09-12T02:33:19;19.02;;;17.23;;
15012;SDS011;7603;49.432;11.418;2023-09-12T02:35:44;16.88;;;15.32;;
15012;SDS011;7603;49.432;11.418;2023-09-12T02:38:10;18.58;;;16.88;;
15012;SDS011;7603;49.432;11.418;2023-09-12T02:40:35;21.30;;;17.70;;
15012;SDS011;7603;49.432;11.418;2023-09-12T02:43:01;20.90;;;19.08;;
15012;SDS011;7603;49.432;11.418;2023-09-12T02:45:27;18.95;;;17.25;;
15012;SDS011;7603;49.432;11.418;2023-09-12T02:47:52;18.10;;;16.40;;
15012;SDS011;7603;49.432;11.418;2023-09-12T02:50:18;19.65;;;18.00;;
15012;SDS011;7603;49.432;11.418;2023-09-12T02:52:44;23.05;;;20.63;;
15012;SDS011;7603;49.432;11.418;2023-09-12T02:55:09;19.95;;;17.95;;
15012;SDS011;7603;49.432;11.418;2023-09-12T02:57:36;22.20;;;19.80;;
15012;SDS011;7603;49.432;11.418;2023-09-12T03:00:01;20.52;;;18.58;;
15012;SDS011;7603;49.432;11.418;2023-09-12T03:02:27;21.42;;;19.42;;
15012;SDS011;7603;49.432;11.418;2023-09-12T03:04:54;24.58;;;19.50;;
15012;SDS011;7603;49.432;11.418;2023-09-12T03:07:19;19.65;;;17.95;;
15012;SDS011;7603;49.432;11.418;2023-09-12T03:09:47;18.85;;;17.13;;
15012;SDS011;7603;49.432;11.418;2023-09-12T03:12:14;21.90;;;19.42;;
15012;SDS011;7603;49.432;11.418;2023-09-12T03:14:40;22.20;;;19.98;;
15012;SDS011;7603;49.432;11.418;2023-09-12T03:17:06;21.25;;;19.35;;
15012;SDS011;7603;49.432;11.418;2023-09-12T03:19:31;20.67;;;19.00;;
15012;SDS011;7603;49.432;11.418;2023-09-12T03:21:57;22.38;;;20.23;;
15012;SDS011;7603;49.432;11.418;2023-09-12T03:24:22;23.92;;;19.42;;
15012;SDS011;7603;49.432;11.418;2023-09-12T03:26:50;22.70;;;20.52;;
15012;SDS011;7603;49.432;11.418;2023-09-12T03:29:16;24.23;;;21.70;;
15012;SDS011;7603;49.432;11.418;2023-09-12T03:31:41;22.73;;;19.30;;
15012;SDS011;7603;49.432;11.418;2023-09-12T03:34:07;20.10;;;17.65;;
15012;SDS011;7603;49.432;11.418;2023-09-12T03:36:33;23.00;;;20.75;;
15012;SDS011;7603;49.432;11.418;2023-09-12T03:38:58;23.23;;;21.33;;
15012;SDS011;7603;49.432;11.418;2023-09-12T03:41:24;24.65;;;22.10;;
15012;SDS011;7603;49.432;11.418;2023-09-12T03:43:53;26.40;;;23.80;;
15012;SDS011;7603;49.432;11.418;2023-09-12T03:46:20;25.15;;;22.75;;
15012;SDS011;7603;49.432;11.418;2023-09-12T03:48:46;25.88;;;23.27;;
15012;SDS011;7603;49.432;11.418;2023-09-12T03:51:12;23.35;;;21.25;;
15012;SDS011;7603;49.432;11.418;2023-09-12T03:53:38;23.75;;;21.48;;
15012;SDS011;7603;49.432;11.418;2023-09-12T03:56:04;25.25;;;22.63;;
15012;SDS011;7603;49.432;11.418;2023-09-12T03:58:29;24.58;;;22.15;;
15012;SDS011;7603;49.432;11.418;2023-09-12T04:00:55;24.00;;;21.85;;
15012;SDS011;7603;49.432;11.418;2023-09-12T04:03:21;26.50;;;23.67;;
15012;SDS011;7603;49.432;11.418;2023-09-12T04:05:47;23.88;;;21.48;;
15012;SDS011;7603;49.432;11.418;2023-09-12T04:08:13;27.33;;;24.58;;
15012;SDS011;7603;49.432;11.418;2023-09-12T04:10:39;24.13;;;22.13;;
15012;SDS011;7603;49.432;11.418;2023-09-12T04:13:04;24.10;;;21.90;;
15012;SDS011;7603;49.432;11.418;2023-09-12T04:15:30;27.52;;;24.63;;
15012;SDS011;7603;49.432;11.418;2023-09-12T04:17:55;21.98;;;19.98;;
15012;SDS011;7603;49.432;11.418;2023-09-12T04:20:21;26.65;;;24.13;;
15012;SDS011;7603;49.432;11.418;2023-09-12T04:22:47;29.27;;;25.33;;
15012;SDS011;7603;49.432;11.418;2023-09-12T04:25:12;28.70;;;25.58;;
15012;SDS011;7603;49.432;11.418;2023-09-12T04:27:38;26.77;;;24.02;;
15012;SDS011;7603;49.432;11.418;2023-09-12T04:30:04;25.48;;;22.90;;
15012;SDS011;7603;49.432;11.418;2023-09-12T04:32:30;23.73;;;21.38;;
15012;SDS011;7603;49.432;11.418;2023-09-12T04:34:56;26.98;;;24.15;;
15012;SDS011;7603;49.432;11.418;2023-09-12T04:37:21;28.60;;;25.58;;
15012;SDS011;7603;49.432;11.418;2023-09-12T04:39:48;29.35;;;26.50;;
15012;SDS011;7603;49.432;11.418;2023-09-12T04:42:13;25.13;;;22.67;;
15012;SDS011;7603;49.432;11.418;2023-09-12T04:44:39;28.00;;;25.13;;
15012;SDS011;7603;49.432;11.418;2023-09-12T04:47:06;26.80;;;24.05;;
15012;SDS011;7603;49.432;11.418;2023-09-12T04:49:31;25.23;;;22.70;;
15012;SDS011;7603;49.432;11.418;2023-09-12T04:51:57;29.10;;;26.30;;
15012;SDS011;7603;49.432;11.418;2023-09-12T04:54:23;26.67;;;24.08;;
15012;SDS011;7603;49.432;11.418;2023-09-12T04:56:48;27.42;;;24.63;;
15012;SDS011;7603;49.432;11.418;2023-09-12T04:59:14;28.02;;;25.15;;
15012;SDS011;7603;49.432;11.418;2023-09-12T05:01:39;28.10;;;25.38;;
15012;SDS011;7603;49.432;11.418;2023-09-12T05:04:05;24.65;;;22.55;;
15012;SDS011;7603;49.432;11.418;2023-09-12T05:06:31;28.60;;;21.85;;
15012;SDS011;7603;49.432;11.418;2023-09-12T05:08:56;23.75;;;21.20;;
15012;SDS011;7603;49.432;11.418;2023-09-12T05:11:22;23.73;;;21.10;;
15012;SDS011;7603;49.432;11.418;2023-09-12T05:13:49;28.33;;;25.45;;
15012;SDS011;7603;49.432;11.418;2023-09-12T05:16:16;25.33;;;22.50;;
15012;SDS011;7603;49.432;11.418;2023-09-12T05:18:42;27.38;;;24.67;;
15012;SDS011;7603;49.432;11.418;2023-09-12T05:21:08;24.75;;;22.27;;
15012;SDS011;7603;49.432;11.418;2023-09-12T05:23:34;23.88;;;21.65;;
15012;SDS011;7603;49.432;11.418;2023-09-12T05:25:59;24.45;;;22.23;;
15012;SDS011;7603;49.432;11.418;2023-09-12T05:28:25;23.95;;;21.35;;
15012;SDS011;7603;49.432;11.418;2023-09-12T05:30:52;24.50;;;21.92;;
15012;SDS011;7603;49.432;11.418;2023-09-12T05:33:17;24.13;;;21.60;;
15012;SDS011;7603;49.432;11.418;2023-09-12T05:35:43;22.88;;;20.77;;
15012;SDS011;7603;49.432;11.418;2023-09-12T05:38:09;22.40;;;20.15;;
15012;SDS011;7603;49.432;11.418;2023-09-12T05:40:36;24.30;;;21.90;;
15012;SDS011;7603;49.432;11.418;2023-09-12T05:43:02;25.65;;;22.00;;
15012;SDS011;7603;49.432;11.418;2023-09-12T05:45:28;25.05;;;21.80;;
15012;SDS011;7603;49.432;11.418;2023-09-12T05:47:58;25.15;;;20.15;;
15012;SDS011;7603;49.432;11.418;2023-09-12T05:50:24;24.88;;;22.33;;
15012;SDS011;7603;49.432;11.418;2023-09-12T05:52:49;22.13;;;19.50;;
15012;SDS011;7603;49.432;11.418;2023-09-12T05:55:16;22.92;;;20.80;;
15012;SDS011;7603;49.432;11.418;2023-09-12T05:57:42;28.80;;;21.58;;
15012;SDS011;7603;49.432;11.418;2023-09-12T06:00:08;24.08;;;19.40;;
15012;SDS011;7603;49.432;11.418;2023-09-12T06:02:37;19.33;;;17.45;;
15012;SDS011;7603;49.432;11.418;2023-09-12T06:05:03;19.00;;;17.30;;
15012;SDS011;7603;49.432;11.418;2023-09-12T06:07:29;23.17;;;17.35;;
15012;SDS011;7603;49.432;11.418;2023-09-12T06:09:57;20.73;;;17.30;;
15012;SDS011;7603;49.432;11.418;2023-09-12T06:12:23;18.83;;;16.92;;
15012;SDS011;7603;49.432;11.418;2023-09-12T06:14:48;17.00;;;15.30;;
15012;SDS011;7603;49.432;11.418;2023-09-12T06:17:14;22.15;;;15.13;;
15012;SDS011;7603;49.432;11.418;2023-09-12T06:19:40;28.17;;;15.13;;
15012;SDS011;7603;49.432;11.418;2023-09-12T06:22:05;18.42;;;16.27;;
15012;SDS011;7603;49.432;11.418;2023-09-12T06:24:31;27.90;;;17.05;;
15012;SDS011;7603;49.432;11.418;2023-09-12T06:26:56;19.10;;;15.55;;
15012;SDS011;7603;49.432;11.418;2023-09-12T06:29:22;18.15;;;16.25;;
15012;SDS011;7603;49.432;11.418;2023-09-12T06:31:48;23.52;;;13.45;;
15012;SDS011;7603;49.432;11.418;2023-09-12T06:34:14;27.30;;;15.38;;
15012;SDS011;7603;49.432;11.418;2023-09-12T06:36:39;18.83;;;13.68;;
15012;SDS011;7603;49.432;11.418;2023-09-12T06:39:09;24.02;;;14.40;;
15012;SDS011;7603;49.432;11.418;2023-09-12T06:41:35;24.83;;;14.98;;
15012;SDS011;7603;49.432;11.418;2023-09-12T06:44:01;22.55;;;14.70;;
15012;SDS011;7603;49.432;11.418;2023-09-12T06:46:28;30.40;;;14.75;;
15012;SDS011;7603;49.432;11.418;2023-09-12T06:48:53;19.45;;;13.27;;
15012;SDS011;7603;49.432;11.418;2023-09-12T06:51:22;21.65;;;12.98;;
15012;SDS011;7603;49.432;11.418;2023-09-12T06:53:49;25.30;;;13.25;;
15012;SDS011;7603;49.432;11.418;2023-09-12T06:56:15;15.35;;;12.10;;
15012;SDS011;7603;49.432;11.418;2023-09-12T06:58:40;16.65;;;12.60;;
15012;SDS011;7603;49.432;11.418;2023-09-12T07:01:06;17.58;;;11.27;;
15012;SDS011;7603;49.432;11.418;2023-09-12T07:03:32;18.33;;;12.63;;
15012;SDS011;7603;49.432;11.418;2023-09-12T07:05:59;13.93;;;11.80;;
15012;SDS011;7603;49.432;11.418;2023-09-12T07:08:24;13.80;;;11.68;;
15012;SDS011;7603;49.432;11.418;2023-09-12T07:10:50;12.95;;;11.57;;
15012;SDS011;7603;49.432;11.418;2023-09-12T07:13:16;13.68;;;10.73;;
15012;SDS011;7603;49.432;11.418;2023-09-12T07:15:42;17.23;;;10.73;;
15012;SDS011;7603;49.432;11.418;2023-09-12T07:18:07;12.43;;;11.05;;
15012;SDS011;7603;49.432;11.418;2023-09-12T07:20:34;13.88;;;10.77;;
15012;SDS011;7603;49.432;11.418;2023-09-12T07:22:59;14.82;;;11.65;;
15012;SDS011;7603;49.432;11.418;2023-09-12T07:25:25;21.98;;;10.65;;
15012;SDS011;7603;49.432;11.418;2023-09-12T07:27:51;25.05;;;14.38;;
15012;SDS011;7603;49.432;11.418;2023-09-12T07:30:17;24.20;;;10.93;;
15012;SDS011;7603;49.432;11.418;2023-09-12T07:32:42;13.77;;;10.80;;
15012;SDS011;7603;49.432;11.418;2023-09-12T07:35:08;17.85;;;11.02;;
15012;SDS011;7603;49.432;11.418;2023-09-12T07:37:34;17.92;;;10.52;;
15012;SDS011;7603;49.432;11.418;2023-09-12T07:40:00;22.90;;;10.43;;
15012;SDS011;7603;49.432;11.418;2023-09-12T07:42:26;19.55;;;10.48;;
15012;SDS011;7603;49.432;11.418;2023-09-12T07:44:51;13.95;;;10.60;;
15012;SDS011;7603;49.432;11.418;2023-09-12T07:47:17;22.80;;;10.95;;
15012;SDS011;7603;49.432;11.418;2023-09-12T07:49:43;21.15;;;10.40;;
15012;SDS011;7603;49.432;11.418;2023-09-12T07:52:09;23.05;;;11.20;;
15012;SDS011;7603;49.432;11.418;2023-09-12T07:54:35;13.60;;;11.07;;
15012;SDS011;7603;49.432;11.418;2023-09-12T07:57:02;24.23;;;11.48;;
15012;SDS011;7603;49.432;11.418;2023-09-12T07:59:28;12.20;;;10.75;;
15012;SDS011;7603;49.432;11.418;2023-09-12T08:01:53;13.45;;;10.82;;
15012;SDS011;7603;49.432;11.418;2023-09-12T08:04:19;16.42;;;10.75;;
15012;SDS011;7603;49.432;11.418;2023-09-12T08:06:45;13.80;;;11.82;;
15012;SDS011;7603;49.432;11.418;2023-09-12T08:09:10;14.48;;;11.05;;
15012;SDS011;7603;49.432;11.418;2023-09-12T08:11:36;12.13;;;11.13;;
15012;SDS011;7603;49.432;11.418;2023-09-12T08:14:02;12.18;;;11.20;;
15012;SDS011;7603;49.432;11.418;2023-09-12T08:16:27;12.75;;;11.73;;
15012;SDS011;7603;49.432;11.418;2023-09-12T08:18:53;12.23;;;11.52;;
15012;SDS011;7603;49.432;11.418;2023-09-12T08:21:19;12.48;;;11.65;;
15012;SDS011;7603;49.432;11.418;2023-09-12T08:23:44;13.05;;;12.02;;
15012;SDS011;7603;49.432;11.418;2023-09-12T08:26:10;12.68;;;11.55;;
15012;SDS011;7603;49.432;11.418;2023-09-12T08:28:36;11.48;;;10.73;;
15012;SDS011;7603;49.432;11.418;2023-09-12T08:31:01;11.82;;;10.70;;
15012;SDS011;7603;49.432;11.418;2023-09-12T08:33:30;12.75;;;11.95;;
15012;SDS011;7603;49.432;11.418;2023-09-12T08:35:55;12.30;;;11.50;;
15012;SDS011;7603;49.432;11.418;2023-09-12T08:38:21;12.20;;;11.13;;
15012;SDS011;7603;49.432;11.418;2023-09-12T08:40:50;11.98;;;11.27;;
15012;SDS011;7603;49.432;11.418;2023-09-12T08:43:16;11.13;;;10.30;;
15012;SDS011;7603;49.432;11.418;2023-09-12T08:45:42;12.48;;;11.57;;
15012;SDS011;7603;49.432;11.418;2023-09-12T08:48:11;11.20;;;10.50;;
15012;SDS011;7603;49.432;11.418;2023-09-12T08:50:38;10.43;;;9.73;;
15012;SDS011;7603;49.432;11.418;2023-09-12T08:53:04;10.80;;;9.90;;
15012;SDS011;7603;49.432;11.418;2023-09-12T08:55:30;10.50;;;9.57;;
15012;SDS011;7603;49.432;11.418;2023-09-12T08:58:04;10.20;;;9.40;;
15012;SDS011;7603;49.432;11.418;2023-09-12T09:00:30;10.15;;;9.30;;
15012;SDS011;7603;49.432;11.418;2023-09-12T09:02:56;9.98;;;9.18;;
15012;SDS011;7603;49.432;11.418;2023-09-12T09:05:23;9.40;;;8.70;;
15012;SDS011;7603;49.432;11.418;2023-09-12T09:07:50;8.52;;;7.95;;
15012;SDS011;7603;49.432;11.418;2023-09-12T09:10:17;10.05;;;9.40;;
15012;SDS011;7603;49.432;11.418;2023-09-12T09:12:45;8.65;;;7.95;;
15012;SDS011;7603;49.432;11.418;2023-09-12T09:15:24;8.48;;;7.82;;
15012;SDS011;7603;49.432;11.418;2023-09-12T09:17:52;9.23;;;8.25;;
15012;SDS011;7603;49.432;11.418;2023-09-12T09:23:03;9.40;;;8.70;;
15012;SDS011;7603;49.432;11.418;2023-09-12T09:25:38;8.40;;;7.90;;
15012;SDS011;7603;49.432;11.418;2023-09-12T09:28:05;7.38;;;6.68;;
15012;SDS011;7603;49.432;11.418;2023-09-12T09:30:51;7.90;;;6.78;;
15012;SDS011;7603;49.432;11.418;2023-09-12T09:33:20;8.02;;;7.15;;
15012;SDS011;7603;49.432;11.418;2023-09-12T09:35:46;6.35;;;6.05;;
15012;SDS011;7603;49.432;11.418;2023-09-12T09:38:13;8.68;;;7.22;;
15012;SDS011;7603;49.432;11.418;2023-09-12T09:40:41;7.70;;;7.22;;
15012;SDS011;7603;49.432;11.418;2023-09-12T09:43:08;7.65;;;6.85;;
15012;SDS011;7603;49.432;11.418;2023-09-12T09:45:42;6.93;;;6.30;;
15012;SDS011;7603;49.432;11.418;2023-09-12T09:48:17;10.55;;;7.30;;
15012;SDS011;7603;49.432;11.418;2023-09-12T09:50:46;7.82;;;7.35;;
15012;SDS011;7603;49.432;11.418;2023-09-12T09:53:12;7.85;;;7.15;;
15012;SDS011;7603;49.432;11.418;2023-09-12T09:55:38;7.55;;;7.03;;
15012;SDS011;7603;49.432;11.418;2023-09-12T09:58:06;6.28;;;5.72;;
15012;SDS011;7603;49.432;11.418;2023-09-12T10:00:36;6.72;;;6.22;;
15012;SDS011;7603;49.432;11.418;2023-09-12T10:03:03;10.88;;;6.18;;
15012;SDS011;7603;49.432;11.418;2023-09-12T10:05:32;7.30;;;6.80;;
15012;SDS011;7603;49.432;11.418;2023-09-12T10:08:00;8.02;;;6.57;;
15012;SDS011;7603;49.432;11.418;2023-09-12T10:10:29;6.90;;;6.30;;
15012;SDS011;7603;49.432;11.418;2023-09-12T10:12:56;6.90;;;6.25;;
15012;SDS011;7603;49.432;11.418;2023-09-12T10:15:23;6.25;;;5.85;;
15012;SDS011;7603;49.432;11.418;2023-09-12T10:17:57;6.10;;;5.70;;
15012;SDS011;7603;49.432;11.418;2023-09-12T10:20:26;6.50;;;6.10;;
15012;SDS011;7603;49.432;11.418;2023-09-12T10:26:01;6.15;;;5.53;;
15012;SDS011;7603;49.432;11.418;2023-09-12T10:28:28;5.97;;;5.45;;
15012;SDS011;7603;49.432;11.418;2023-09-12T10:30:53;5.82;;;5.53;;
15012;SDS011;7603;49.432;11.418;2023-09-12T10:33:22;5.53;;;5.13;;
15012;SDS011;7603;49.432;11.418;2023-09-12T10:35:48;6.05;;;5.30;;
15012;SDS011;7603;49.432;11.418;2023-09-12T10:38:15;7.55;;;5.32;;
15012;SDS011;7603;49.432;11.418;2023-09-12T10:40:43;5.55;;;5.25;;
15012;SDS011;7603;49.432;11.418;2023-09-12T10:43:10;6.00;;;5.60;;
15012;SDS011;7603;49.432;11.418;2023-09-12T10:45:39;4.80;;;4.47;;
15012;SDS011;7603;49.432;11.418;2023-09-12T10:48:06;5.60;;;5.30;;
15012;SDS011;7603;49.432;11.418;2023-09-12T10:50:34;5.60;;;5.20;;
15012;SDS011;7603;49.432;11.418;2023-09-12T10:53:13;5.53;;;5.13;;
15012;SDS011;7603;49.432;11.418;2023-09-12T10:55:41;5.60;;;5.20;;
15012;SDS011;7603;49.432;11.418;2023-09-12T10:58:08;5.80;;;5.30;;
15012;SDS011;7603;49.432;11.418;2023-09-12T11:00:35;5.90;;;5.32;;
15012;SDS011;7603;49.432;11.418;2023-09-12T11:03:45;5.65;;;4.82;;
15012;SDS011;7603;49.432;11.418;2023-09-12T11:05:52;6.55;;;5.20;;
15012;SDS011;7603;49.432;11.418;2023-09-12T11:08:19;5.28;;;4.90;;
15012;SDS011;7603;49.432;11.418;2023-09-12T11:10:51;5.75;;;5.25;;
15012;SDS011;7603;49.432;11.418;2023-09-12T11:13:47;5.03;;;4.63;;
15012;SDS011;7603;49.432;11.418;2023-09-12T11:16:28;8.00;;;4.68;;
15012;SDS011;7603;49.432;11.418;2023-09-12T11:21:44;5.07;;;4.68;;
15012;SDS011;7603;49.432;11.418;2023-09-12T11:24:15;5.43;;;5.03;;
15012;SDS011;7603;49.432;11.418;2023-09-12T11:29:30;4.95;;;4.55;;
15012;SDS011;7603;49.432;11.418;2023-09-12T11:32:03;5.90;;;5.13;;
15012;SDS011;7603;49.432;11.418;2023-09-12T11:34:35;5.53;;;5.05;;
15012;SDS011;7603;49.432;11.418;2023-09-12T11:37:08;6.72;;;5.03;;
15012;SDS011;7603;49.432;11.418;2023-09-12T11:39:35;5.28;;;4.88;;
15012;SDS011;7603;49.432;11.418;2023-09-12T11:42:03;5.55;;;5.05;;
15012;SDS011;7603;49.432;11.418;2023-09-12T11:44:30;7.40;;;5.40;;
15012;SDS011;7603;49.432;11.418;2023-09-12T11:46:59;8.60;;;5.20;;
15012;SDS011;7603;49.432;11.418;2023-09-12T11:49:36;5.70;;;5.20;;
15012;SDS011;7603;49.432;11.418;2023-09-12T11:52:09;5.20;;;4.80;;
15012;SDS011;7603;49.432;11.418;2023-09-12T11:54:41;4.95;;;4.45;;
15012;SDS011;7603;49.432;11.418;2023-09-12T11:57:08;6.22;;;5.07;;
15012;SDS011;7603;49.432;11.418;2023-09-12T11:59:42;4.78;;;4.38;;
15012;SDS011;7603;49.432;11.418;2023-09-12T12:02:13;4.95;;;4.65;;
15012;SDS011;7603;49.432;11.418;2023-09-12T12:04:39;5.47;;;4.95;;
15012;SDS011;7603;49.432;11.418;2023-09-12T12:07:06;5.30;;;4.75;;
15012;SDS011;7603;49.432;11.418;2023-09-12T12:09:33;5.40;;;4.90;;
15012;SDS011;7603;49.432;11.418;2023-09-12T12:12:03;6.57;;;4.93;;
15012;SDS011;7603;49.432;11.418;2023-09-12T12:14:38;5.35;;;4.95;;
15012;SDS011;7603;49.432;11.418;2023-09-12T12:17:05;5.97;;;4.57;;
15012;SDS011;7603;49.432;11.418;2023-09-12T12:19:34;5.40;;;4.15;;
15012;SDS011;7603;49.432;11.418;2023-09-12T12:22:01;9.27;;;4.95;;
15012;SDS011;7603;49.432;11.418;2023-09-12T12:24:36;6.13;;;4.72;;
15012;SDS011;7603;49.432;11.418;2023-09-12T12:27:06;5.15;;;4.75;;
15012;SDS011;7603;49.432;11.418;2023-09-12T12:29:34;5.03;;;4.55;;
15012;SDS011;7603;49.432;11.418;2023-09-12T12:32:00;4.70;;;4.22;;
15012;SDS011;7603;49.432;11.418;2023-09-12T12:34:27;7.93;;;4.28;;
15012;SDS011;7603;49.432;11.418;2023-09-12T12:36:55;4.75;;;4.28;;
15012;SDS011;7603;49.432;11.418;2023-09-12T12:39:21;5.05;;;4.55;;
15012;SDS011;7603;49.432;11.418;2023-09-12T12:41:47;5.60;;;4.75;;
15012;SDS011;7603;49.432;11.418;2023-09-12T12:44:13;5.55;;;4.60;;
15012;SDS011;7603;49.432;11.418;2023-09-12T12:46:47;4.95;;;4.43;;
15012;SDS011;7603;49.432;11.418;2023-09-12T12:49:15;9.60;;;4.28;;
15012;SDS011;7603;49.432;11.418;2023-09-12T12:51:42;5.07;;;4.40;;
15012;SDS011;7603;49.432;11.418;2023-09-12T12:54:08;5.07;;;4.07;;
15012;SDS011;7603;49.432;11.418;2023-09-12T12:56:33;5.28;;;4.38;;
15012;SDS011;7603;49.432;11.418;2023-09-12T12:59:00;7.15;;;4.60;;
15012;SDS011;7603;49.432;11.418;2023-09-12T13:01:33;6.25;;;4.47;;
15012;SDS011;7603;49.432;11.418;2023-09-12T13:04:04;9.63;;;5.05;;
15012;SDS011;7603;49.432;11.418;2023-09-12T13:06:31;4.72;;;4.28;;
15012;SDS011;7603;49.432;11.418;2023-09-12T13:09:00;7.25;;;4.57;;
15012;SDS011;7603;49.432;11.418;2023-09-12T13:11:29;4.43;;;4.13;;
15012;SDS011;7603;49.432;11.418;2023-09-12T13:13:55;6.20;;;4.45;;
15012;SDS011;7603;49.432;11.418;2023-09-12T13:16:21;4.93;;;4.43;;
15012;SDS011;7603;49.432;11.418;2023-09-12T13:18:47;9.07;;;4.00;;
15012;SDS011;7603;49.432;11.418;2023-09-12T13:21:13;5.32;;;4.57;;
15012;SDS011;7603;49.432;11.418;2023-09-12T13:23:38;4.55;;;4.25;;
15012;SDS011;7603;49.432;11.418;2023-09-12T13:26:08;4.75;;;4.38;;
15012;SDS011;7603;49.432;11.418;2023-09-12T13:28:34;5.05;;;3.80;;
15012;SDS011;7603;49.432;11.418;2023-09-12T13:31:00;4.85;;;4.30;;
15012;SDS011;7603;49.432;11.418;2023-09-12T13:33:26;8.57;;;4.18;;
15012;SDS011;7603;49.432;11.418;2023-09-12T13:35:51;4.75;;;4.40;;
15012;SDS011;7603;49.432;11.418;2023-09-12T13:38:17;4.63;;;4.22;;
15012;SDS011;7603;49.432;11.418;2023-09-12T13:40:44;4.30;;;3.90;;
15012;SDS011;7603;49.432;11.418;2023-09-12T13:43:11;4.75;;;4.10;;
15012;SDS011;7603;49.432;11.418;2023-09-12T13:45:41;4.93;;;4.10;;
15012;SDS011;7603;49.432;11.418;2023-09-12T13:48:06;6.25;;;4.38;;
15012;SDS011;7603;49.432;11.418;2023-09-12T13:50:33;6.40;;;4.53;;
15012;SDS011;7603;49.432;11.418;2023-09-12T13:52:59;4.63;;;4.22;;
15012;SDS011;7603;49.432;11.418;2023-09-12T13:55:31;8.88;;;4.75;;
15012;SDS011;7603;49.432;11.418;2023-09-12T13:57:58;7.63;;;4.20;;
15012;SDS011;7603;49.432;11.418;2023-09-12T14:00:24;4.95;;;4.65;;
15012;SDS011;7603;49.432;11.418;2023-09-12T14:02:50;5.75;;;4.47;;
15012;SDS011;7603;49.432;11.418;2023-09-12T14:05:15;6.93;;;4.28;;
15012;SDS011;7603;49.432;11.418;2023-09-12T14:07:41;4.97;;;4.07;;
15012;SDS011;7603;49.432;11.418;2023-09-12T14:10:07;5.43;;;4.38;;
15012;SDS011;7603;49.432;11.418;2023-09-12T14:12:32;5.20;;;4.68;;
15012;SDS011;7603;49.432;11.418;2023-09-12T14:14:58;4.75;;;4.30;;
15012;SDS011;7603;49.432;11.418;2023-09-12T14:17:24;4.88;;;4.30;;
15012;SDS011;7603;49.432;11.418;2023-09-12T14:19:50;8.15;;;4.70;;
15012;SDS011;7603;49.432;11.418;2023-09-12T14:22:15;4.75;;;4.30;;
15012;SDS011;7603;49.432;11.418;2023-09-12T14:24:41;4.63;;;3.92;;
15012;SDS011;7603;49.432;11.418;2023-09-12T14:27:07;4.75;;;4.35;;
15012;SDS011;7603;49.432;11.418;2023-09-12T14:29:32;5.18;;;4.78;;
15012;SDS011;7603;49.432;11.418;2023-09-12T14:31:58;6.70;;;4.57;;
15012;SDS011;7603;49.432;11.418;2023-09-12T14:34:24;5.03;;;4.70;;
15012;SDS011;7603;49.432;11.418;2023-09-12T14:36:54;6.35;;;4.40;;
15012;SDS011;7603;49.432;11.418;2023-09-12T14:39:23;5.22;;;4.43;;
15012;SDS011;7603;49.432;11.418;2023-09-12T14:41:50;4.60;;;4.20;;
15012;SDS011;7603;49.432;11.418;2023-09-12T14:44:19;4.25;;;4.03;;